sensor_id;sensor_type;location;lat;lon;timestamp;P1;durP1;ratioP1;P2;durP2;ratioP2
73132;SDS011;61320;52.008;4.530;2023-03-26T00:01:07;10.94;;;7.43;;
73132;SDS011;61320;52.008;4.530;2023-03-26T00:03:35;13.56;;;9.42;;
73132;SDS011;61320;52.008;4.530;2023-03-26T00:06:06;13.14;;;9.87;;
73132;SDS011;61320;52.008;4.530;2023-03-26T00:08:34;10.82;;;8.34;;
73132;SDS011;61320;52.008;4.530;2023-03-26T00:11:01;11.72;;;8.70;;
73132;SDS011;61320;52.008;4.530;2023-03-26T00:13:27;12.62;;;9.02;;
73132;SDS011;61320;52.008;4.530;2023-03-26T00:15:53;13.65;;;9.45;;
73132;SDS011;61320;52.008;4.530;2023-03-26T00:18:19;13.66;;;9.42;;
73132;SDS011;61320;52.008;4.530;2023-03-26T00:20:46;14.73;;;9.99;;
73132;SDS011;61320;52.008;4.530;2023-03-26T00:23:12;13.89;;;9.96;;
73132;SDS011;61320;52.008;4.530;2023-03-26T00:25:38;16.07;;;11.45;;
73132;SDS011;61320;52.008;4.530;2023-03-26T00:28:07;16.57;;;11.70;;
73132;SDS011;61320;52.008;4.530;2023-03-26T00:30:33;19.61;;;13.37;;
73132;SDS011;61320;52.008;4.530;2023-03-26T00:33:05;21.22;;;14.45;;
73132;SDS011;61320;52.008;4.530;2023-03-26T00:35:34;22.68;;;15.14;;
73132;SDS011;61320;52.008;4.530;2023-03-26T00:38:01;25.78;;;16.74;;
73132;SDS011;61320;52.008;4.530;2023-03-26T00:40:26;21.17;;;14.08;;
73132;SDS011;61320;52.008;4.530;2023-03-26T00:42:53;20.86;;;14.63;;
73132;SDS011;61320;52.008;4.530;2023-03-26T00:45:19;19.70;;;14.07;;
73132;SDS011;61320;52.008;4.530;2023-03-26T00:47:46;18.74;;;13.10;;
73132;SDS011;61320;52.008;4.530;2023-03-26T00:50:11;23.21;;;16.23;;
73132;SDS011;61320;52.008;4.530;2023-03-26T00:52:40;21.63;;;15.48;;
73132;SDS011;61320;52.008;4.530;2023-03-26T00:55:10;19.85;;;15.12;;
73132;SDS011;61320;52.008;4.530;2023-03-26T00:57:36;19.95;;;14.37;;
73132;SDS011;61320;52.008;4.530;2023-03-26T01:00:04;18.19;;;13.17;;
73132;SDS011;61320;52.008;4.530;2023-03-26T01:02:34;20.96;;;14.61;;
73132;SDS011;61320;52.008;4.530;2023-03-26T01:04:59;20.22;;;13.69;;
73132;SDS011;61320;52.008;4.530;2023-03-26T01:07:28;20.84;;;13.90;;
73132;SDS011;61320;52.008;4.530;2023-03-26T01:09:54;22.30;;;14.80;;
73132;SDS011;61320;52.008;4.530;2023-03-26T01:12:23;21.99;;;14.53;;
73132;SDS011;61320;52.008;4.530;2023-03-26T01:14:57;21.46;;;14.09;;
73132;SDS011;61320;52.008;4.530;2023-03-26T01:17:24;24.14;;;15.32;;
73132;SDS011;61320;52.008;4.530;2023-03-26T01:20:18;23.49;;;15.05;;
73132;SDS011;61320;52.008;4.530;2023-03-26T01:22:51;24.05;;;15.18;;
73132;SDS011;61320;52.008;4.530;2023-03-26T01:25:24;25.27;;;15.70;;
73132;SDS011;61320;52.008;4.530;2023-03-26T01:27:58;26.69;;;16.69;;
73132;SDS011;61320;52.008;4.530;2023-03-26T01:35:48;29.01;;;18.00;;
73132;SDS011;61320;52.008;4.530;2023-03-26T01:38:32;28.76;;;17.75;;
73132;SDS011;61320;52.008;4.530;2023-03-26T01:44:05;28.05;;;17.27;;
73132;SDS011;61320;52.008;4.530;2023-03-26T01:46:40;29.04;;;17.62;;
73132;SDS011;61320;52.008;4.530;2023-03-26T01:49:07;29.34;;;17.74;;
73132;SDS011;61320;52.008;4.530;2023-03-26T01:51:37;31.77;;;18.88;;
73132;SDS011;61320;52.008;4.530;2023-03-26T01:54:06;31.45;;;18.73;;
73132;SDS011;61320;52.008;4.530;2023-03-26T01:59:18;30.58;;;18.24;;
73132;SDS011;61320;52.008;4.530;2023-03-26T02:02:16;31.42;;;18.83;;
73132;SDS011;61320;52.008;4.530;2023-03-26T02:10:42;32.08;;;19.16;;
73132;SDS011;61320;52.008;4.530;2023-03-26T02:13:11;31.92;;;18.91;;
73132;SDS011;61320;52.008;4.530;2023-03-26T02:15:38;31.26;;;18.56;;
73132;SDS011;61320;52.008;4.530;2023-03-26T02:18:05;31.46;;;18.76;;
73132;SDS011;61320;52.008;4.530;2023-03-26T02:20:35;31.68;;;18.99;;
73132;SDS011;61320;52.008;4.530;2023-03-26T02:23:01;29.48;;;17.96;;
73132;SDS011;61320;52.008;4.530;2023-03-26T02:25:26;29.21;;;17.93;;
73132;SDS011;61320;52.008;4.530;2023-03-26T02:27:52;27.18;;;17.01;;
73132;SDS011;61320;52.008;4.530;2023-03-26T02:30:19;28.51;;;17.99;;
73132;SDS011;61320;52.008;4.530;2023-03-26T02:32:51;29.01;;;18.22;;
73132;SDS011;61320;52.008;4.530;2023-03-26T02:35:18;27.96;;;17.65;;
73132;SDS011;61320;52.008;4.530;2023-03-26T02:37:46;28.48;;;18.10;;
73132;SDS011;61320;52.008;4.530;2023-03-26T02:40:15;27.10;;;17.45;;
73132;SDS011;61320;52.008;4.530;2023-03-26T02:42:41;25.21;;;16.39;;
73132;SDS011;61320;52.008;4.530;2023-03-26T02:45:07;28.12;;;17.86;;
73132;SDS011;61320;52.008;4.530;2023-03-26T02:47:33;24.33;;;15.63;;
73132;SDS011;61320;52.008;4.530;2023-03-26T02:49:58;23.37;;;15.21;;
73132;SDS011;61320;52.008;4.530;2023-03-26T02:52:25;23.07;;;15.03;;
73132;SDS011;61320;52.008;4.530;2023-03-26T02:54:51;26.22;;;16.48;;
73132;SDS011;61320;52.008;4.530;2023-03-26T02:57:17;26.54;;;16.76;;
73132;SDS011;61320;52.008;4.530;2023-03-26T02:59:43;23.19;;;15.01;;
73132;SDS011;61320;52.008;4.530;2023-03-26T03:02:10;25.56;;;16.35;;
73132;SDS011;61320;52.008;4.530;2023-03-26T03:04:37;23.72;;;15.54;;
73132;SDS011;61320;52.008;4.530;2023-03-26T03:07:03;22.51;;;14.89;;
73132;SDS011;61320;52.008;4.530;2023-03-26T03:09:29;22.39;;;14.83;;
73132;SDS011;61320;52.008;4.530;2023-03-26T03:11:55;22.17;;;14.80;;
73132;SDS011;61320;52.008;4.530;2023-03-26T03:14:20;21.28;;;14.24;;
73132;SDS011;61320;52.008;4.530;2023-03-26T03:16:46;20.92;;;14.06;;
73132;SDS011;61320;52.008;4.530;2023-03-26T03:19:11;22.18;;;14.87;;
73132;SDS011;61320;52.008;4.530;2023-03-26T03:21:38;21.70;;;14.46;;
73132;SDS011;61320;52.008;4.530;2023-03-26T03:24:05;21.27;;;13.92;;
73132;SDS011;61320;52.008;4.530;2023-03-26T03:26:31;19.96;;;12.98;;
73132;SDS011;61320;52.008;4.530;2023-03-26T03:28:58;19.60;;;12.72;;
73132;SDS011;61320;52.008;4.530;2023-03-26T03:31:25;20.54;;;13.28;;
73132;SDS011;61320;52.008;4.530;2023-03-26T03:33:51;19.30;;;12.55;;
73132;SDS011;61320;52.008;4.530;2023-03-26T03:36:18;19.19;;;12.48;;
73132;SDS011;61320;52.008;4.530;2023-03-26T03:38:48;20.16;;;12.99;;
73132;SDS011;61320;52.008;4.530;2023-03-26T03:41:15;20.15;;;12.88;;
73132;SDS011;61320;52.008;4.530;2023-03-26T03:43:42;18.56;;;11.99;;
73132;SDS011;61320;52.008;4.530;2023-03-26T03:46:08;19.11;;;12.41;;
73132;SDS011;61320;52.008;4.530;2023-03-26T03:48:34;20.24;;;12.83;;
73132;SDS011;61320;52.008;4.530;2023-03-26T03:51:02;20.71;;;13.17;;
73132;SDS011;61320;52.008;4.530;2023-03-26T03:53:28;19.41;;;12.39;;
73132;SDS011;61320;52.008;4.530;2023-03-26T03:55:54;19.12;;;12.22;;
73132;SDS011;61320;52.008;4.530;2023-03-26T03:58:21;15.32;;;10.23;;
73132;SDS011;61320;52.008;4.530;2023-03-26T04:00:49;16.35;;;10.95;;
73132;SDS011;61320;52.008;4.530;2023-03-26T04:03:16;18.41;;;11.93;;
73132;SDS011;61320;52.008;4.530;2023-03-26T04:05:44;17.68;;;11.75;;
73132;SDS011;61320;52.008;4.530;2023-03-26T04:08:16;18.76;;;12.11;;
73132;SDS011;61320;52.008;4.530;2023-03-26T04:10:43;17.33;;;11.38;;
73132;SDS011;61320;52.008;4.530;2023-03-26T04:13:10;18.53;;;12.34;;
73132;SDS011;61320;52.008;4.530;2023-03-26T04:15:36;17.70;;;12.07;;
73132;SDS011;61320;52.008;4.530;2023-03-26T04:18:02;17.39;;;12.00;;
73132;SDS011;61320;52.008;4.530;2023-03-26T04:20:28;16.94;;;11.47;;
73132;SDS011;61320;52.008;4.530;2023-03-26T04:22:53;17.07;;;11.38;;
73132;SDS011;61320;52.008;4.530;2023-03-26T04:25:19;17.88;;;11.63;;
73132;SDS011;61320;52.008;4.530;2023-03-26T04:27:45;18.28;;;11.88;;
73132;SDS011;61320;52.008;4.530;2023-03-26T04:30:13;18.06;;;11.82;;
73132;SDS011;61320;52.008;4.530;2023-03-26T04:32:44;17.56;;;11.49;;
73132;SDS011;61320;52.008;4.530;2023-03-26T04:35:12;17.26;;;11.46;;
73132;SDS011;61320;52.008;4.530;2023-03-26T04:37:40;16.32;;;10.95;;
73132;SDS011;61320;52.008;4.530;2023-03-26T04:40:14;16.37;;;10.83;;
73132;SDS011;61320;52.008;4.530;2023-03-26T04:42:44;18.35;;;11.94;;
73132;SDS011;61320;52.008;4.530;2023-03-26T04:45:22;17.79;;;11.68;;
73132;SDS011;61320;52.008;4.530;2023-03-26T04:47:49;18.08;;;11.74;;
73132;SDS011;61320;52.008;4.530;2023-03-26T04:50:16;17.16;;;11.13;;
73132;SDS011;61320;52.008;4.530;2023-03-26T04:52:45;18.87;;;12.13;;
73132;SDS011;61320;52.008;4.530;2023-03-26T04:55:34;19.18;;;12.31;;
73132;SDS011;61320;52.008;4.530;2023-03-26T04:58:02;16.84;;;11.29;;
73132;SDS011;61320;52.008;4.530;2023-03-26T05:00:30;16.10;;;10.87;;
73132;SDS011;61320;52.008;4.530;2023-03-26T05:02:56;16.82;;;11.31;;
73132;SDS011;61320;52.008;4.530;2023-03-26T05:05:24;16.53;;;11.05;;
73132;SDS011;61320;52.008;4.530;2023-03-26T05:07:55;16.56;;;11.26;;
73132;SDS011;61320;52.008;4.530;2023-03-26T05:10:20;17.03;;;11.35;;
73132;SDS011;61320;52.008;4.530;2023-03-26T05:12:46;15.85;;;10.78;;
73132;SDS011;61320;52.008;4.530;2023-03-26T05:15:12;17.35;;;11.63;;
73132;SDS011;61320;52.008;4.530;2023-03-26T05:17:39;16.30;;;11.21;;
73132;SDS011;61320;52.008;4.530;2023-03-26T05:20:06;15.86;;;11.05;;
73132;SDS011;61320;52.008;4.530;2023-03-26T05:22:41;15.12;;;10.74;;
73132;SDS011;61320;52.008;4.530;2023-03-26T05:25:07;15.86;;;11.17;;
73132;SDS011;61320;52.008;4.530;2023-03-26T05:27:33;15.80;;;11.17;;
73132;SDS011;61320;52.008;4.530;2023-03-26T05:29:59;15.87;;;11.20;;
73132;SDS011;61320;52.008;4.530;2023-03-26T05:32:29;14.02;;;10.22;;
73132;SDS011;61320;52.008;4.530;2023-03-26T05:34:55;13.80;;;9.98;;
73132;SDS011;61320;52.008;4.530;2023-03-26T05:37:21;13.79;;;10.03;;
73132;SDS011;61320;52.008;4.530;2023-03-26T05:39:54;15.29;;;10.86;;
73132;SDS011;61320;52.008;4.530;2023-03-26T05:42:20;15.47;;;11.09;;
73132;SDS011;61320;52.008;4.530;2023-03-26T05:44:45;14.24;;;10.62;;
73132;SDS011;61320;52.008;4.530;2023-03-26T05:47:11;15.16;;;11.00;;
73132;SDS011;61320;52.008;4.530;2023-03-26T05:49:36;14.02;;;10.40;;
73132;SDS011;61320;52.008;4.530;2023-03-26T05:52:02;13.46;;;10.05;;
73132;SDS011;61320;52.008;4.530;2023-03-26T05:54:27;15.08;;;11.00;;
73132;SDS011;61320;52.008;4.530;2023-03-26T05:56:53;16.29;;;11.76;;
73132;SDS011;61320;52.008;4.530;2023-03-26T05:59:18;15.99;;;11.60;;
73132;SDS011;61320;52.008;4.530;2023-03-26T06:01:44;15.45;;;11.34;;
73132;SDS011;61320;52.008;4.530;2023-03-26T06:04:12;16.57;;;11.97;;
73132;SDS011;61320;52.008;4.530;2023-03-26T06:06:40;16.36;;;12.20;;
73132;SDS011;61320;52.008;4.530;2023-03-26T06:09:06;14.89;;;11.49;;
73132;SDS011;61320;52.008;4.530;2023-03-26T06:11:32;15.47;;;12.19;;
73132;SDS011;61320;52.008;4.530;2023-03-26T06:13:58;15.72;;;12.44;;
73132;SDS011;61320;52.008;4.530;2023-03-26T06:16:24;15.38;;;12.64;;
73132;SDS011;61320;52.008;4.530;2023-03-26T06:18:49;15.61;;;12.45;;
73132;SDS011;61320;52.008;4.530;2023-03-26T06:21:16;14.97;;;12.18;;
73132;SDS011;61320;52.008;4.530;2023-03-26T06:23:42;15.79;;;12.66;;
73132;SDS011;61320;52.008;4.530;2023-03-26T06:26:08;15.31;;;12.46;;
73132;SDS011;61320;52.008;4.530;2023-03-26T06:28:33;15.03;;;12.64;;
73132;SDS011;61320;52.008;4.530;2023-03-26T06:31:00;13.23;;;11.44;;
73132;SDS011;61320;52.008;4.530;2023-03-26T06:33:26;13.54;;;11.76;;
73132;SDS011;61320;52.008;4.530;2023-03-26T06:35:52;14.15;;;12.05;;
73132;SDS011;61320;52.008;4.530;2023-03-26T06:38:18;13.80;;;11.67;;
73132;SDS011;61320;52.008;4.530;2023-03-26T06:40:43;14.03;;;11.97;;
73132;SDS011;61320;52.008;4.530;2023-03-26T06:43:09;13.24;;;11.40;;
73132;SDS011;61320;52.008;4.530;2023-03-26T06:45:34;13.63;;;11.60;;
73132;SDS011;61320;52.008;4.530;2023-03-26T06:48:00;14.61;;;12.41;;
73132;SDS011;61320;52.008;4.530;2023-03-26T06:50:26;14.78;;;12.27;;
73132;SDS011;61320;52.008;4.530;2023-03-26T06:52:55;14.99;;;12.48;;
73132;SDS011;61320;52.008;4.530;2023-03-26T06:55:21;14.24;;;12.25;;
73132;SDS011;61320;52.008;4.530;2023-03-26T06:57:49;14.69;;;12.75;;
73132;SDS011;61320;52.008;4.530;2023-03-26T07:00:16;13.88;;;11.93;;
73132;SDS011;61320;52.008;4.530;2023-03-26T07:02:43;15.24;;;12.52;;
73132;SDS011;61320;52.008;4.530;2023-03-26T07:05:09;13.01;;;11.15;;
73132;SDS011;61320;52.008;4.530;2023-03-26T07:07:34;13.71;;;11.60;;
73132;SDS011;61320;52.008;4.530;2023-03-26T07:10:00;12.72;;;10.91;;
73132;SDS011;61320;52.008;4.530;2023-03-26T07:12:25;14.29;;;11.70;;
73132;SDS011;61320;52.008;4.530;2023-03-26T07:14:51;13.61;;;11.30;;
73132;SDS011;61320;52.008;4.530;2023-03-26T07:17:17;12.87;;;10.72;;
73132;SDS011;61320;52.008;4.530;2023-03-26T07:19:43;11.80;;;10.09;;
73132;SDS011;61320;52.008;4.530;2023-03-26T07:22:12;12.38;;;10.64;;
73132;SDS011;61320;52.008;4.530;2023-03-26T07:24:49;12.42;;;10.41;;
73132;SDS011;61320;52.008;4.530;2023-03-26T07:33:13;11.66;;;10.22;;
73132;SDS011;61320;52.008;4.530;2023-03-26T07:46:19;10.53;;;9.24;;
73132;SDS011;61320;52.008;4.530;2023-03-26T07:48:52;10.17;;;8.72;;
73132;SDS011;61320;52.008;4.530;2023-03-26T07:51:19;10.09;;;8.73;;
73132;SDS011;61320;52.008;4.530;2023-03-26T07:53:45;10.63;;;8.91;;
73132;SDS011;61320;52.008;4.530;2023-03-26T07:56:12;10.71;;;8.67;;
73132;SDS011;61320;52.008;4.530;2023-03-26T07:58:46;10.44;;;8.46;;
73132;SDS011;61320;52.008;4.530;2023-03-26T08:01:26;10.05;;;8.21;;
73132;SDS011;61320;52.008;4.530;2023-03-26T08:07:17;9.26;;;7.69;;
73132;SDS011;61320;52.008;4.530;2023-03-26T08:10:11;9.21;;;7.58;;
73132;SDS011;61320;52.008;4.530;2023-03-26T08:15:51;9.72;;;8.09;;
73132;SDS011;61320;52.008;4.530;2023-03-26T08:21:22;9.54;;;8.22;;
73132;SDS011;61320;52.008;4.530;2023-03-26T08:23:55;10.02;;;8.61;;
73132;SDS011;61320;52.008;4.530;2023-03-26T08:26:33;10.74;;;8.98;;
73132;SDS011;61320;52.008;4.530;2023-03-26T08:29:39;10.34;;;8.80;;
73132;SDS011;61320;52.008;4.530;2023-03-26T08:32:19;9.88;;;8.68;;
73132;SDS011;61320;52.008;4.530;2023-03-26T08:34:46;9.87;;;8.49;;
73132;SDS011;61320;52.008;4.530;2023-03-26T08:37:12;10.08;;;8.64;;
73132;SDS011;61320;52.008;4.530;2023-03-26T08:39:38;9.13;;;8.06;;
73132;SDS011;61320;52.008;4.530;2023-03-26T09:06:56;10.72;;;10.23;;
73132;SDS011;61320;52.008;4.530;2023-03-26T09:24:06;12.71;;;12.50;;
73132;SDS011;61320;52.008;4.530;2023-03-26T09:33:07;13.39;;;13.37;;
73132;SDS011;61320;52.008;4.530;2023-03-26T09:39:16;13.55;;;13.39;;
73132;SDS011;61320;52.008;4.530;2023-03-26T09:44:52;15.54;;;15.47;;
73132;SDS011;61320;52.008;4.530;2023-03-26T09:56:10;16.64;;;16.64;;
73132;SDS011;61320;52.008;4.530;2023-03-26T10:01:53;18.23;;;18.19;;
73132;SDS011;61320;52.008;4.530;2023-03-26T10:09:44;15.07;;;15.05;;
73132;SDS011;61320;52.008;4.530;2023-03-26T10:12:34;15.00;;;15.00;;
73132;SDS011;61320;52.008;4.530;2023-03-26T10:15:17;13.88;;;13.87;;
73132;SDS011;61320;52.008;4.530;2023-03-26T10:20:54;12.80;;;12.77;;
73132;SDS011;61320;52.008;4.530;2023-03-26T10:29:16;11.58;;;11.52;;
73132;SDS011;61320;52.008;4.530;2023-03-26T10:34:55;10.15;;;10.10;;
73132;SDS011;61320;52.008;4.530;2023-03-26T10:52:14;6.33;;;5.86;;
73132;SDS011;61320;52.008;4.530;2023-03-26T10:54:49;7.01;;;6.34;;
73132;SDS011;61320;52.008;4.530;2023-03-26T10:57:28;7.07;;;6.29;;
73132;SDS011;61320;52.008;4.530;2023-03-26T11:02:46;7.86;;;6.49;;
73132;SDS011;61320;52.008;4.530;2023-03-26T11:05:44;7.38;;;6.04;;
73132;SDS011;61320;52.008;4.530;2023-03-26T11:16:31;9.74;;;7.99;;
73132;SDS011;61320;52.008;4.530;2023-03-26T11:19:20;9.37;;;7.72;;
73132;SDS011;61320;52.008;4.530;2023-03-26T11:22:00;10.33;;;8.59;;
73132;SDS011;61320;52.008;4.530;2023-03-26T11:27:54;10.36;;;9.08;;
73132;SDS011;61320;52.008;4.530;2023-03-26T11:33:16;9.69;;;8.34;;
73132;SDS011;61320;52.008;4.530;2023-03-26T11:35:47;10.29;;;8.53;;
73132;SDS011;61320;52.008;4.530;2023-03-26T11:41:03;9.37;;;7.63;;
73132;SDS011;61320;52.008;4.530;2023-03-26T11:43:37;7.96;;;6.44;;
73132;SDS011;61320;52.008;4.530;2023-03-26T11:46:03;8.61;;;6.81;;
73132;SDS011;61320;52.008;4.530;2023-03-26T11:51:36;8.55;;;6.62;;
73132;SDS011;61320;52.008;4.530;2023-03-26T11:54:04;8.67;;;6.84;;
73132;SDS011;61320;52.008;4.530;2023-03-26T11:56:32;8.67;;;6.76;;
73132;SDS011;61320;52.008;4.530;2023-03-26T12:01:46;9.28;;;7.35;;
73132;SDS011;61320;52.008;4.530;2023-03-26T12:04:17;9.29;;;7.59;;
73132;SDS011;61320;52.008;4.530;2023-03-26T12:06:56;9.37;;;7.56;;
73132;SDS011;61320;52.008;4.530;2023-03-26T12:09:29;9.18;;;7.36;;
73132;SDS011;61320;52.008;4.530;2023-03-26T12:11:58;8.30;;;6.77;;
73132;SDS011;61320;52.008;4.530;2023-03-26T12:14:27;9.12;;;7.16;;
73132;SDS011;61320;52.008;4.530;2023-03-26T12:19:39;8.42;;;6.80;;
73132;SDS011;61320;52.008;4.530;2023-03-26T12:27:50;7.78;;;5.88;;
73132;SDS011;61320;52.008;4.530;2023-03-26T12:32:49;8.41;;;6.23;;
73132;SDS011;61320;52.008;4.530;2023-03-26T12:35:18;8.54;;;6.28;;
73132;SDS011;61320;52.008;4.530;2023-03-26T12:37:51;7.78;;;5.80;;
73132;SDS011;61320;52.008;4.530;2023-03-26T12:40:32;8.50;;;6.46;;
73132;SDS011;61320;52.008;4.530;2023-03-26T12:43:01;8.85;;;6.64;;
73132;SDS011;61320;52.008;4.530;2023-03-26T12:45:39;9.17;;;6.78;;
73132;SDS011;61320;52.008;4.530;2023-03-26T12:48:08;8.82;;;6.38;;
73132;SDS011;61320;52.008;4.530;2023-03-26T13:09:57;8.13;;;6.26;;
73132;SDS011;61320;52.008;4.530;2023-03-26T13:15:49;7.16;;;5.35;;
73132;SDS011;61320;52.008;4.530;2023-03-26T13:18:20;8.18;;;6.15;;
73132;SDS011;61320;52.008;4.530;2023-03-26T13:21:06;6.75;;;5.19;;
73132;SDS011;61320;52.008;4.530;2023-03-26T13:29:27;6.61;;;4.99;;
73132;SDS011;61320;52.008;4.530;2023-03-26T13:38:03;5.78;;;4.59;;
73132;SDS011;61320;52.008;4.530;2023-03-26T13:43:20;7.10;;;5.62;;
73132;SDS011;61320;52.008;4.530;2023-03-26T13:46:20;6.84;;;5.45;;
73132;SDS011;61320;52.008;4.530;2023-03-26T13:57:27;6.86;;;5.20;;
73132;SDS011;61320;52.008;4.530;2023-03-26T14:00:03;6.69;;;5.16;;
73132;SDS011;61320;52.008;4.530;2023-03-26T14:02:46;6.45;;;5.12;;
73132;SDS011;61320;52.008;4.530;2023-03-26T14:05:33;6.33;;;4.91;;
73132;SDS011;61320;52.008;4.530;2023-03-26T14:08:28;5.58;;;4.45;;
73132;SDS011;61320;52.008;4.530;2023-03-26T14:11:12;5.60;;;4.36;;
73132;SDS011;61320;52.008;4.530;2023-03-26T14:13:56;5.43;;;4.23;;
73132;SDS011;61320;52.008;4.530;2023-03-26T14:16:41;5.38;;;4.27;;
73132;SDS011;61320;52.008;4.530;2023-03-26T14:21:52;4.79;;;3.71;;
73132;SDS011;61320;52.008;4.530;2023-03-26T14:30:38;4.44;;;3.39;;
73132;SDS011;61320;52.008;4.530;2023-03-26T14:41:36;5.19;;;4.00;;
73132;SDS011;61320;52.008;4.530;2023-03-26T15:00:50;4.95;;;3.63;;
73132;SDS011;61320;52.008;4.530;2023-03-26T15:03:57;5.36;;;4.05;;
73132;SDS011;61320;52.008;4.530;2023-03-26T15:09:29;4.51;;;3.43;;
73132;SDS011;61320;52.008;4.530;2023-03-26T15:32:06;5.87;;;4.29;;
73132;SDS011;61320;52.008;4.530;2023-03-26T15:40:33;6.25;;;4.53;;
73132;SDS011;61320;52.008;4.530;2023-03-26T15:43:09;6.48;;;4.51;;
73132;SDS011;61320;52.008;4.530;2023-03-26T15:48:30;6.43;;;4.46;;
73132;SDS011;61320;52.008;4.530;2023-03-26T15:51:21;6.32;;;4.38;;
73132;SDS011;61320;52.008;4.530;2023-03-26T15:54:29;5.95;;;4.10;;
73132;SDS011;61320;52.008;4.530;2023-03-26T16:10:57;5.38;;;3.81;;
73132;SDS011;61320;52.008;4.530;2023-03-26T16:18:24;5.75;;;3.92;;
73132;SDS011;61320;52.008;4.530;2023-03-26T16:23:51;5.68;;;4.07;;
73132;SDS011;61320;52.008;4.530;2023-03-26T16:26:25;5.07;;;3.63;;
73132;SDS011;61320;52.008;4.530;2023-03-26T16:34:39;5.50;;;3.89;;
73132;SDS011;61320;52.008;4.530;2023-03-26T16:45:17;4.65;;;3.46;;
73132;SDS011;61320;52.008;4.530;2023-03-26T16:47:56;5.00;;;3.70;;
73132;SDS011;61320;52.008;4.530;2023-03-26T16:53:19;4.59;;;3.38;;
73132;SDS011;61320;52.008;4.530;2023-03-26T17:04:01;4.40;;;3.26;;
73132;SDS011;61320;52.008;4.530;2023-03-26T17:12:02;3.93;;;2.91;;
73132;SDS011;61320;52.008;4.530;2023-03-26T17:24:58;4.19;;;3.08;;
73132;SDS011;61320;52.008;4.530;2023-03-26T17:30:41;4.23;;;3.01;;
73132;SDS011;61320;52.008;4.530;2023-03-26T17:35:51;3.74;;;2.70;;
73132;SDS011;61320;52.008;4.530;2023-03-26T17:41:04;4.04;;;2.98;;
73132;SDS011;61320;52.008;4.530;2023-03-26T17:46:03;4.77;;;3.49;;
73132;SDS011;61320;52.008;4.530;2023-03-26T17:48:55;3.86;;;2.84;;
73132;SDS011;61320;52.008;4.530;2023-03-26T17:54:31;5.18;;;3.66;;
73132;SDS011;61320;52.008;4.530;2023-03-26T17:57:09;4.48;;;3.18;;
73132;SDS011;61320;52.008;4.530;2023-03-26T17:59:44;4.90;;;3.45;;
73132;SDS011;61320;52.008;4.530;2023-03-26T18:02:15;5.13;;;3.61;;
73132;SDS011;61320;52.008;4.530;2023-03-26T18:04:45;4.90;;;3.41;;
73132;SDS011;61320;52.008;4.530;2023-03-26T18:07:54;5.46;;;3.85;;
73132;SDS011;61320;52.008;4.530;2023-03-26T18:18:24;5.34;;;3.78;;
73132;SDS011;61320;52.008;4.530;2023-03-26T18:21:01;5.08;;;3.59;;
73132;SDS011;61320;52.008;4.530;2023-03-26T18:23:34;5.69;;;4.02;;
73132;SDS011;61320;52.008;4.530;2023-03-26T18:26:22;5.36;;;3.83;;
73132;SDS011;61320;52.008;4.530;2023-03-26T18:29:09;5.87;;;4.32;;
73132;SDS011;61320;52.008;4.530;2023-03-26T18:31:57;5.43;;;4.13;;
73132;SDS011;61320;52.008;4.530;2023-03-26T18:34:29;5.34;;;4.13;;
73132;SDS011;61320;52.008;4.530;2023-03-26T18:39:54;4.73;;;3.76;;
73132;SDS011;61320;52.008;4.530;2023-03-26T18:42:40;4.98;;;3.90;;
73132;SDS011;61320;52.008;4.530;2023-03-26T18:47:47;4.60;;;3.52;;
73132;SDS011;61320;52.008;4.530;2023-03-26T18:50:17;4.72;;;3.67;;
73132;SDS011;61320;52.008;4.530;2023-03-26T18:52:50;4.57;;;3.48;;
73132;SDS011;61320;52.008;4.530;2023-03-26T18:55:16;5.11;;;3.75;;
73132;SDS011;61320;52.008;4.530;2023-03-26T18:57:42;5.17;;;3.80;;
73132;SDS011;61320;52.008;4.530;2023-03-26T19:00:15;4.50;;;3.39;;
73132;SDS011;61320;52.008;4.530;2023-03-26T19:02:46;5.05;;;3.67;;
73132;SDS011;61320;52.008;4.530;2023-03-26T19:05:15;4.89;;;3.58;;
73132;SDS011;61320;52.008;4.530;2023-03-26T19:07:43;4.48;;;3.32;;
73132;SDS011;61320;52.008;4.530;2023-03-26T19:10:15;5.07;;;3.76;;
73132;SDS011;61320;52.008;4.530;2023-03-26T19:12:45;5.13;;;3.77;;
73132;SDS011;61320;52.008;4.530;2023-03-26T19:15:19;4.34;;;3.17;;
73132;SDS011;61320;52.008;4.530;2023-03-26T19:17:48;4.44;;;3.23;;
73132;SDS011;61320;52.008;4.530;2023-03-26T19:20:27;4.43;;;3.23;;
73132;SDS011;61320;52.008;4.530;2023-03-26T19:22:57;4.21;;;3.08;;
73132;SDS011;61320;52.008;4.530;2023-03-26T19:25:24;4.78;;;3.54;;
73132;SDS011;61320;52.008;4.530;2023-03-26T19:27:53;5.24;;;3.83;;
73132;SDS011;61320;52.008;4.530;2023-03-26T19:30:25;5.57;;;4.02;;
73132;SDS011;61320;52.008;4.530;2023-03-26T19:32:54;4.76;;;3.49;;
73132;SDS011;61320;52.008;4.530;2023-03-26T19:35:25;4.61;;;3.37;;
73132;SDS011;61320;52.008;4.530;2023-03-26T19:37:51;4.93;;;3.62;;
73132;SDS011;61320;52.008;4.530;2023-03-26T19:40:22;5.37;;;3.88;;
73132;SDS011;61320;52.008;4.530;2023-03-26T19:42:56;5.22;;;3.75;;
73132;SDS011;61320;52.008;4.530;2023-03-26T19:45:22;4.72;;;3.38;;
73132;SDS011;61320;52.008;4.530;2023-03-26T19:47:50;4.81;;;3.42;;
73132;SDS011;61320;52.008;4.530;2023-03-26T19:50:28;5.17;;;3.69;;
73132;SDS011;61320;52.008;4.530;2023-03-26T19:53:04;4.55;;;3.29;;
73132;SDS011;61320;52.008;4.530;2023-03-26T19:55:38;4.25;;;3.15;;
73132;SDS011;61320;52.008;4.530;2023-03-26T19:58:07;4.34;;;3.20;;
73132;SDS011;61320;52.008;4.530;2023-03-26T20:00:34;4.37;;;3.18;;
73132;SDS011;61320;52.008;4.530;2023-03-26T20:03:00;5.03;;;3.64;;
73132;SDS011;61320;52.008;4.530;2023-03-26T20:05:31;5.21;;;3.80;;
73132;SDS011;61320;52.008;4.530;2023-03-26T20:07:59;4.71;;;3.46;;
73132;SDS011;61320;52.008;4.530;2023-03-26T20:10:34;4.65;;;3.37;;
73132;SDS011;61320;52.008;4.530;2023-03-26T20:13:00;5.01;;;3.64;;
73132;SDS011;61320;52.008;4.530;2023-03-26T20:15:27;4.84;;;3.46;;
73132;SDS011;61320;52.008;4.530;2023-03-26T20:17:57;4.74;;;3.37;;
73132;SDS011;61320;52.008;4.530;2023-03-26T20:20:25;5.53;;;3.86;;
73132;SDS011;61320;52.008;4.530;2023-03-26T20:22:54;4.79;;;3.37;;
73132;SDS011;61320;52.008;4.530;2023-03-26T20:25:25;5.19;;;3.58;;
73132;SDS011;61320;52.008;4.530;2023-03-26T20:27:54;5.51;;;3.82;;
73132;SDS011;61320;52.008;4.530;2023-03-26T20:30:22;5.59;;;3.94;;
73132;SDS011;61320;52.008;4.530;2023-03-26T20:32:48;5.30;;;3.69;;
73132;SDS011;61320;52.008;4.530;2023-03-26T20:37:47;4.42;;;3.04;;
73132;SDS011;61320;52.008;4.530;2023-03-26T20:40:13;5.62;;;3.76;;
73132;SDS011;61320;52.008;4.530;2023-03-26T20:42:40;5.39;;;3.62;;
73132;SDS011;61320;52.008;4.530;2023-03-26T20:45:19;5.75;;;3.84;;
73132;SDS011;61320;52.008;4.530;2023-03-26T20:47:46;5.94;;;3.90;;
73132;SDS011;61320;52.008;4.530;2023-03-26T20:50:19;5.96;;;3.94;;
73132;SDS011;61320;52.008;4.530;2023-03-26T20:52:47;5.72;;;3.81;;
73132;SDS011;61320;52.008;4.530;2023-03-26T20:55:18;5.00;;;3.35;;
73132;SDS011;61320;52.008;4.530;2023-03-26T20:57:47;5.31;;;3.57;;
73132;SDS011;61320;52.008;4.530;2023-03-26T21:00:15;4.91;;;3.33;;
73132;SDS011;61320;52.008;4.530;2023-03-26T21:02:44;5.62;;;3.76;;
73132;SDS011;61320;52.008;4.530;2023-03-26T21:05:11;4.86;;;3.28;;
73132;SDS011;61320;52.008;4.530;2023-03-26T21:07:43;5.04;;;3.45;;
73132;SDS011;61320;52.008;4.530;2023-03-26T21:10:10;5.03;;;3.43;;
73132;SDS011;61320;52.008;4.530;2023-03-26T21:13:01;4.85;;;3.34;;
73132;SDS011;61320;52.008;4.530;2023-03-26T21:15:24;4.69;;;3.26;;